sensor_id;sensor_type;location;lat;lon;timestamp;P1;durP1;ratioP1;P2;durP2;ratioP2
18820;SDS011;9539;59.332;18.034;2022-10-31T00:02:02;8.93;;;5.18;;
18820;SDS011;9539;59.332;18.034;2022-10-31T00:04:28;9.55;;;4.80;;
18820;SDS011;9539;59.332;18.034;2022-10-31T00:06:55;10.60;;;4.97;;
18820;SDS011;9539;59.332;18.034;2022-10-31T00:09:23;11.07;;;4.70;;
18820;SDS011;9539;59.332;18.034;2022-10-31T00:11:50;13.30;;;5.10;;
18820;SDS011;9539;59.332;18.034;2022-10-31T00:14:17;11.57;;;4.90;;
18820;SDS011;9539;59.332;18.034;2022-10-31T00:16:44;12.23;;;5.03;;
18820;SDS011;9539;59.332;18.034;2022-10-31T00:19:11;15.73;;;5.18;;
18820;SDS011;9539;59.332;18.034;2022-10-31T00:21:37;11.43;;;5.20;;
18820;SDS011;9539;59.332;18.034;2022-10-31T00:24:04;11.23;;;5.43;;
18820;SDS011;9539;59.332;18.034;2022-10-31T00:26:33;9.63;;;5.07;;
18820;SDS011;9539;59.332;18.034;2022-10-31T00:29:00;14.00;;;5.18;;
18820;SDS011;9539;59.332;18.034;2022-10-31T00:31:27;10.85;;;5.55;;
18820;SDS011;9539;59.332;18.034;2022-10-31T00:33:55;10.35;;;5.40;;
18820;SDS011;9539;59.332;18.034;2022-10-31T00:36:22;9.63;;;5.30;;
18820;SDS011;9539;59.332;18.034;2022-10-31T00:38:48;10.32;;;5.50;;
18820;SDS011;9539;59.332;18.034;2022-10-31T00:41:16;14.65;;;5.47;;
18820;SDS011;9539;59.332;18.034;2022-10-31T00:43:45;12.77;;;5.53;;
18820;SDS011;9539;59.332;18.034;2022-10-31T00:46:12;7.78;;;5.13;;
18820;SDS011;9539;59.332;18.034;2022-10-31T00:48:39;11.93;;;5.78;;
18820;SDS011;9539;59.332;18.034;2022-10-31T00:51:06;8.77;;;5.78;;
18820;SDS011;9539;59.332;18.034;2022-10-31T00:53:34;12.77;;;5.20;;
18820;SDS011;9539;59.332;18.034;2022-10-31T00:56:01;13.82;;;5.50;;
18820;SDS011;9539;59.332;18.034;2022-10-31T00:58:29;11.77;;;5.53;;
18820;SDS011;9539;59.332;18.034;2022-10-31T01:00:57;12.90;;;5.25;;
18820;SDS011;9539;59.332;18.034;2022-10-31T01:03:25;9.73;;;5.32;;
18820;SDS011;9539;59.332;18.034;2022-10-31T01:05:57;9.38;;;5.50;;
18820;SDS011;9539;59.332;18.034;2022-10-31T01:08:25;13.57;;;5.82;;
18820;SDS011;9539;59.332;18.034;2022-10-31T01:10:59;8.68;;;5.55;;
18820;SDS011;9539;59.332;18.034;2022-10-31T01:13:31;13.98;;;5.82;;
18820;SDS011;9539;59.332;18.034;2022-10-31T01:16:00;7.88;;;4.60;;
18820;SDS011;9539;59.332;18.034;2022-10-31T01:18:28;10.05;;;5.35;;
18820;SDS011;9539;59.332;18.034;2022-10-31T01:20:59;13.32;;;5.95;;
18820;SDS011;9539;59.332;18.034;2022-10-31T01:23:30;11.63;;;5.43;;
18820;SDS011;9539;59.332;18.034;2022-10-31T01:25:58;8.90;;;5.25;;
18820;SDS011;9539;59.332;18.034;2022-10-31T01:28:29;9.13;;;5.72;;
18820;SDS011;9539;59.332;18.034;2022-10-31T01:31:00;11.77;;;5.32;;
18820;SDS011;9539;59.332;18.034;2022-10-31T01:33:28;7.82;;;4.72;;
18820;SDS011;9539;59.332;18.034;2022-10-31T01:35:55;11.52;;;5.30;;
18820;SDS011;9539;59.332;18.034;2022-10-31T01:38:22;9.95;;;5.13;;
18820;SDS011;9539;59.332;18.034;2022-10-31T01:40:49;11.07;;;5.28;;
18820;SDS011;9539;59.332;18.034;2022-10-31T01:43:16;9.07;;;5.35;;
18820;SDS011;9539;59.332;18.034;2022-10-31T01:45:43;10.00;;;5.13;;
18820;SDS011;9539;59.332;18.034;2022-10-31T01:48:15;8.63;;;5.30;;
18820;SDS011;9539;59.332;18.034;2022-10-31T01:50:46;9.70;;;5.07;;
18820;SDS011;9539;59.332;18.034;2022-10-31T01:53:14;10.50;;;5.25;;
18820;SDS011;9539;59.332;18.034;2022-10-31T01:55:43;11.93;;;5.45;;
18820;SDS011;9539;59.332;18.034;2022-10-31T01:58:12;10.07;;;5.40;;
18820;SDS011;9539;59.332;18.034;2022-10-31T02:00:41;10.00;;;5.10;;
18820;SDS011;9539;59.332;18.034;2022-10-31T02:03:12;11.85;;;4.97;;
18820;SDS011;9539;59.332;18.034;2022-10-31T02:05:40;8.80;;;4.57;;
18820;SDS011;9539;59.332;18.034;2022-10-31T02:08:10;9.77;;;4.70;;
18820;SDS011;9539;59.332;18.034;2022-10-31T02:10:42;11.18;;;5.15;;
18820;SDS011;9539;59.332;18.034;2022-10-31T02:13:10;9.80;;;4.85;;
18820;SDS011;9539;59.332;18.034;2022-10-31T02:15:38;12.30;;;5.32;;
18820;SDS011;9539;59.332;18.034;2022-10-31T02:18:06;11.40;;;5.28;;
18820;SDS011;9539;59.332;18.034;2022-10-31T02:20:36;13.10;;;5.40;;
18820;SDS011;9539;59.332;18.034;2022-10-31T02:26:29;10.43;;;5.05;;
18820;SDS011;9539;59.332;18.034;2022-10-31T02:29:07;11.50;;;5.32;;
18820;SDS011;9539;59.332;18.034;2022-10-31T02:31:49;10.23;;;5.32;;
18820;SDS011;9539;59.332;18.034;2022-10-31T02:34:28;14.32;;;4.93;;
18820;SDS011;9539;59.332;18.034;2022-10-31T02:37:04;12.30;;;4.70;;
18820;SDS011;9539;59.332;18.034;2022-10-31T02:39:40;12.55;;;4.82;;
18820;SDS011;9539;59.332;18.034;2022-10-31T02:42:15;18.48;;;5.25;;
18820;SDS011;9539;59.332;18.034;2022-10-31T02:44:49;12.73;;;4.97;;
18820;SDS011;9539;59.332;18.034;2022-10-31T02:47:23;15.73;;;4.90;;
18820;SDS011;9539;59.332;18.034;2022-10-31T02:49:54;10.38;;;4.97;;
18820;SDS011;9539;59.332;18.034;2022-10-31T02:52:25;10.75;;;4.95;;
18820;SDS011;9539;59.332;18.034;2022-10-31T02:54:53;8.98;;;5.30;;
18820;SDS011;9539;59.332;18.034;2022-10-31T02:57:22;10.23;;;5.28;;
18820;SDS011;9539;59.332;18.034;2022-10-31T02:59:52;9.93;;;5.20;;
18820;SDS011;9539;59.332;18.034;2022-10-31T03:02:30;10.05;;;5.18;;
18820;SDS011;9539;59.332;18.034;2022-10-31T03:05:23;8.75;;;4.68;;
18820;SDS011;9539;59.332;18.034;2022-10-31T03:08:02;10.63;;;4.78;;
18820;SDS011;9539;59.332;18.034;2022-10-31T03:10:38;9.63;;;4.78;;
18820;SDS011;9539;59.332;18.034;2022-10-31T03:13:10;12.00;;;5.10;;
18820;SDS011;9539;59.332;18.034;2022-10-31T03:15:51;13.20;;;5.15;;
18820;SDS011;9539;59.332;18.034;2022-10-31T03:18:23;10.98;;;5.05;;
18820;SDS011;9539;59.332;18.034;2022-10-31T03:20:55;11.93;;;4.97;;
18820;SDS011;9539;59.332;18.034;2022-10-31T03:23:30;10.32;;;5.00;;
18820;SDS011;9539;59.332;18.034;2022-10-31T03:26:00;17.38;;;4.90;;
18820;SDS011;9539;59.332;18.034;2022-10-31T03:28:33;12.85;;;5.03;;
18820;SDS011;9539;59.332;18.034;2022-10-31T03:31:04;11.98;;;5.22;;
18820;SDS011;9539;59.332;18.034;2022-10-31T03:33:36;10.98;;;4.63;;
18820;SDS011;9539;59.332;18.034;2022-10-31T03:36:05;17.38;;;5.30;;
18820;SDS011;9539;59.332;18.034;2022-10-31T03:38:36;9.23;;;4.80;;
18820;SDS011;9539;59.332;18.034;2022-10-31T03:41:05;19.88;;;5.07;;
18820;SDS011;9539;59.332;18.034;2022-10-31T03:43:38;14.13;;;4.93;;
18820;SDS011;9539;59.332;18.034;2022-10-31T03:46:08;11.77;;;5.25;;
18820;SDS011;9539;59.332;18.034;2022-10-31T03:48:37;11.70;;;5.28;;
18820;SDS011;9539;59.332;18.034;2022-10-31T03:51:05;14.93;;;4.90;;
18820;SDS011;9539;59.332;18.034;2022-10-31T03:53:38;11.88;;;4.95;;
18820;SDS011;9539;59.332;18.034;2022-10-31T03:56:10;12.38;;;4.75;;
18820;SDS011;9539;59.332;18.034;2022-10-31T03:58:45;10.25;;;4.95;;
18820;SDS011;9539;59.332;18.034;2022-10-31T04:01:16;12.48;;;4.50;;
18820;SDS011;9539;59.332;18.034;2022-10-31T04:03:47;11.63;;;5.22;;
18820;SDS011;9539;59.332;18.034;2022-10-31T04:06:15;16.63;;;5.30;;
18820;SDS011;9539;59.332;18.034;2022-10-31T04:08:45;15.60;;;5.20;;
18820;SDS011;9539;59.332;18.034;2022-10-31T04:11:17;10.23;;;4.38;;
18820;SDS011;9539;59.332;18.034;2022-10-31T04:13:47;14.82;;;4.68;;
18820;SDS011;9539;59.332;18.034;2022-10-31T04:16:15;13.20;;;5.00;;
18820;SDS011;9539;59.332;18.034;2022-10-31T04:18:43;11.13;;;4.70;;
18820;SDS011;9539;59.332;18.034;2022-10-31T04:21:11;16.73;;;4.80;;
18820;SDS011;9539;59.332;18.034;2022-10-31T04:23:38;18.45;;;5.60;;
18820;SDS011;9539;59.332;18.034;2022-10-31T04:26:05;13.65;;;4.88;;
18820;SDS011;9539;59.332;18.034;2022-10-31T04:28:31;17.05;;;5.97;;
18820;SDS011;9539;59.332;18.034;2022-10-31T04:30:59;19.05;;;5.40;;
18820;SDS011;9539;59.332;18.034;2022-10-31T04:33:25;19.02;;;6.53;;
18820;SDS011;9539;59.332;18.034;2022-10-31T04:35:52;18.33;;;5.60;;
18820;SDS011;9539;59.332;18.034;2022-10-31T04:38:20;22.35;;;6.25;;
18820;SDS011;9539;59.332;18.034;2022-10-31T04:40:47;21.40;;;6.43;;
18820;SDS011;9539;59.332;18.034;2022-10-31T04:43:14;25.52;;;7.60;;
18820;SDS011;9539;59.332;18.034;2022-10-31T04:45:40;22.67;;;6.88;;
18820;SDS011;9539;59.332;18.034;2022-10-31T04:48:07;24.80;;;6.97;;
18820;SDS011;9539;59.332;18.034;2022-10-31T04:50:34;26.92;;;7.72;;
18820;SDS011;9539;59.332;18.034;2022-10-31T04:53:00;26.02;;;7.30;;
18820;SDS011;9539;59.332;18.034;2022-10-31T04:55:29;20.30;;;7.50;;
18820;SDS011;9539;59.332;18.034;2022-10-31T04:57:56;34.30;;;9.27;;
18820;SDS011;9539;59.332;18.034;2022-10-31T05:00:23;26.58;;;8.55;;
18820;SDS011;9539;59.332;18.034;2022-10-31T05:02:50;27.33;;;9.10;;
18820;SDS011;9539;59.332;18.034;2022-10-31T05:05:20;30.77;;;9.18;;
18820;SDS011;9539;59.332;18.034;2022-10-31T05:07:48;35.42;;;10.05;;
18820;SDS011;9539;59.332;18.034;2022-10-31T05:10:16;49.45;;;11.82;;
18820;SDS011;9539;59.332;18.034;2022-10-31T05:12:49;39.60;;;11.27;;
18820;SDS011;9539;59.332;18.034;2022-10-31T05:15:18;61.95;;;12.65;;
18820;SDS011;9539;59.332;18.034;2022-10-31T05:17:45;224.93;;;15.65;;
18820;SDS011;9539;59.332;18.034;2022-10-31T05:20:13;74.43;;;13.02;;
18820;SDS011;9539;59.332;18.034;2022-10-31T05:22:41;177.50;;;14.50;;
18820;SDS011;9539;59.332;18.034;2022-10-31T05:25:09;439.88;;;20.10;;
18820;SDS011;9539;59.332;18.034;2022-10-31T05:27:38;194.20;;;15.02;;
18820;SDS011;9539;59.332;18.034;2022-10-31T05:30:07;546.88;;;21.60;;
18820;SDS011;9539;59.332;18.034;2022-10-31T05:32:36;395.33;;;18.98;;
18820;SDS011;9539;59.332;18.034;2022-10-31T05:35:04;577.00;;;24.05;;
18820;SDS011;9539;59.332;18.034;2022-10-31T05:37:33;493.83;;;20.38;;
18820;SDS011;9539;59.332;18.034;2022-10-31T05:40:00;552.05;;;20.85;;
18820;SDS011;9539;59.332;18.034;2022-10-31T05:42:26;424.30;;;18.83;;
18820;SDS011;9539;59.332;18.034;2022-10-31T05:44:53;378.00;;;18.35;;
18820;SDS011;9539;59.332;18.034;2022-10-31T05:47:21;233.10;;;13.90;;
18820;SDS011;9539;59.332;18.034;2022-10-31T05:49:48;388.48;;;17.17;;
18820;SDS011;9539;59.332;18.034;2022-10-31T05:52:15;253.73;;;15.70;;
18820;SDS011;9539;59.332;18.034;2022-10-31T05:54:42;239.05;;;15.88;;
18820;SDS011;9539;59.332;18.034;2022-10-31T05:57:08;291.58;;;15.20;;
18820;SDS011;9539;59.332;18.034;2022-10-31T05:59:35;282.83;;;16.60;;
18820;SDS011;9539;59.332;18.034;2022-10-31T06:02:02;194.18;;;12.93;;
18820;SDS011;9539;59.332;18.034;2022-10-31T06:04:30;278.65;;;15.23;;
18820;SDS011;9539;59.332;18.034;2022-10-31T06:06:57;472.70;;;19.67;;
18820;SDS011;9539;59.332;18.034;2022-10-31T06:09:24;337.55;;;16.77;;
18820;SDS011;9539;59.332;18.034;2022-10-31T06:11:51;176.27;;;15.00;;
18820;SDS011;9539;59.332;18.034;2022-10-31T06:14:17;102.97;;;11.43;;
18820;SDS011;9539;59.332;18.034;2022-10-31T06:16:44;220.65;;;15.10;;
18820;SDS011;9539;59.332;18.034;2022-10-31T06:19:11;247.38;;;17.48;;
18820;SDS011;9539;59.332;18.034;2022-10-31T06:21:39;114.85;;;12.18;;
18820;SDS011;9539;59.332;18.034;2022-10-31T06:24:06;146.10;;;15.05;;
18820;SDS011;9539;59.332;18.034;2022-10-31T06:26:33;311.02;;;18.25;;
18820;SDS011;9539;59.332;18.034;2022-10-31T06:29:00;288.92;;;19.55;;
18820;SDS011;9539;59.332;18.034;2022-10-31T06:31:26;308.65;;;19.48;;
18820;SDS011;9539;59.332;18.034;2022-10-31T06:33:53;344.95;;;18.70;;
18820;SDS011;9539;59.332;18.034;2022-10-31T06:36:20;315.23;;;17.42;;
18820;SDS011;9539;59.332;18.034;2022-10-31T06:38:48;186.20;;;15.90;;
18820;SDS011;9539;59.332;18.034;2022-10-31T06:41:15;341.13;;;15.25;;
18820;SDS011;9539;59.332;18.034;2022-10-31T06:43:42;212.05;;;15.00;;
18820;SDS011;9539;59.332;18.034;2022-10-31T06:46:08;227.93;;;17.08;;
18820;SDS011;9539;59.332;18.034;2022-10-31T06:48:35;290.52;;;20.08;;
18820;SDS011;9539;59.332;18.034;2022-10-31T06:51:02;235.82;;;16.65;;
18820;SDS011;9539;59.332;18.034;2022-10-31T06:53:29;346.00;;;18.10;;
18820;SDS011;9539;59.332;18.034;2022-10-31T06:55:57;303.25;;;18.23;;
18820;SDS011;9539;59.332;18.034;2022-10-31T06:58:24;400.88;;;19.77;;
18820;SDS011;9539;59.332;18.034;2022-10-31T07:00:51;149.98;;;15.38;;
18820;SDS011;9539;59.332;18.034;2022-10-31T07:03:18;125.63;;;15.45;;
18820;SDS011;9539;59.332;18.034;2022-10-31T07:05:45;142.43;;;16.20;;
18820;SDS011;9539;59.332;18.034;2022-10-31T07:08:12;227.60;;;17.95;;
18820;SDS011;9539;59.332;18.034;2022-10-31T07:10:40;374.05;;;21.23;;
18820;SDS011;9539;59.332;18.034;2022-10-31T07:13:11;132.75;;;16.85;;
18820;SDS011;9539;59.332;18.034;2022-10-31T07:15:39;502.73;;;24.00;;
18820;SDS011;9539;59.332;18.034;2022-10-31T07:18:07;134.77;;;17.08;;
18820;SDS011;9539;59.332;18.034;2022-10-31T07:20:35;147.68;;;16.80;;
18820;SDS011;9539;59.332;18.034;2022-10-31T07:23:02;142.75;;;16.73;;
18820;SDS011;9539;59.332;18.034;2022-10-31T07:25:30;369.55;;;21.35;;
18820;SDS011;9539;59.332;18.034;2022-10-31T07:27:57;110.90;;;15.60;;
18820;SDS011;9539;59.332;18.034;2022-10-31T07:30:25;243.07;;;18.40;;
18820;SDS011;9539;59.332;18.034;2022-10-31T07:32:51;138.63;;;16.95;;
18820;SDS011;9539;59.332;18.034;2022-10-31T07:35:19;277.23;;;20.33;;
18820;SDS011;9539;59.332;18.034;2022-10-31T07:37:47;214.77;;;18.92;;
18820;SDS011;9539;59.332;18.034;2022-10-31T07:40:14;443.27;;;21.67;;
18820;SDS011;9539;59.332;18.034;2022-10-31T07:42:42;270.17;;;19.52;;
18820;SDS011;9539;59.332;18.034;2022-10-31T07:45:10;164.30;;;18.85;;
18820;SDS011;9539;59.332;18.034;2022-10-31T07:47:40;127.63;;;19.92;;
18820;SDS011;9539;59.332;18.034;2022-10-31T07:50:07;90.63;;;18.52;;
18820;SDS011;9539;59.332;18.034;2022-10-31T07:52:36;113.50;;;20.20;;
18820;SDS011;9539;59.332;18.034;2022-10-31T07:55:02;116.22;;;21.30;;
18820;SDS011;9539;59.332;18.034;2022-10-31T07:57:30;88.13;;;19.13;;
18820;SDS011;9539;59.332;18.034;2022-10-31T07:59:57;97.80;;;20.83;;
18820;SDS011;9539;59.332;18.034;2022-10-31T08:02:24;114.00;;;19.98;;
18820;SDS011;9539;59.332;18.034;2022-10-31T08:04:53;92.60;;;19.48;;
18820;SDS011;9539;59.332;18.034;2022-10-31T08:07:20;85.43;;;18.60;;
18820;SDS011;9539;59.332;18.034;2022-10-31T08:09:46;81.95;;;18.00;;
18820;SDS011;9539;59.332;18.034;2022-10-31T08:12:13;63.38;;;16.20;;
18820;SDS011;9539;59.332;18.034;2022-10-31T08:14:40;70.53;;;17.48;;
18820;SDS011;9539;59.332;18.034;2022-10-31T08:17:07;65.88;;;16.42;;
18820;SDS011;9539;59.332;18.034;2022-10-31T08:19:34;71.32;;;16.30;;
18820;SDS011;9539;59.332;18.034;2022-10-31T08:22:02;65.45;;;14.98;;
18820;SDS011;9539;59.332;18.034;2022-10-31T08:24:29;62.67;;;15.90;;
18820;SDS011;9539;59.332;18.034;2022-10-31T08:26:56;66.35;;;15.95;;
18820;SDS011;9539;59.332;18.034;2022-10-31T08:29:23;65.47;;;15.73;;
18820;SDS011;9539;59.332;18.034;2022-10-31T08:31:49;75.43;;;15.48;;
18820;SDS011;9539;59.332;18.034;2022-10-31T08:34:16;67.57;;;15.45;;
18820;SDS011;9539;59.332;18.034;2022-10-31T08:36:43;67.47;;;15.35;;
18820;SDS011;9539;59.332;18.034;2022-10-31T08:39:12;69.10;;;15.75;;
18820;SDS011;9539;59.332;18.034;2022-10-31T08:41:39;71.10;;;17.27;;
18820;SDS011;9539;59.332;18.034;2022-10-31T08:44:06;72.85;;;16.60;;
18820;SDS011;9539;59.332;18.034;2022-10-31T08:46:32;85.60;;;16.80;;
18820;SDS011;9539;59.332;18.034;2022-10-31T08:49:00;68.22;;;15.88;;
18820;SDS011;9539;59.332;18.034;2022-10-31T08:51:28;79.65;;;16.98;;
18820;SDS011;9539;59.332;18.034;2022-10-31T08:53:54;62.72;;;16.02;;
18820;SDS011;9539;59.332;18.034;2022-10-31T08:56:22;62.13;;;15.63;;
18820;SDS011;9539;59.332;18.034;2022-10-31T08:58:49;55.30;;;15.15;;
18820;SDS011;9539;59.332;18.034;2022-10-31T09:01:17;55.80;;;15.63;;
18820;SDS011;9539;59.332;18.034;2022-10-31T09:03:44;58.22;;;16.00;;
18820;SDS011;9539;59.332;18.034;2022-10-31T09:06:10;62.08;;;16.05;;
18820;SDS011;9539;59.332;18.034;2022-10-31T09:08:37;52.80;;;15.77;;
18820;SDS011;9539;59.332;18.034;2022-10-31T09:11:04;41.10;;;14.45;;
18820;SDS011;9539;59.332;18.034;2022-10-31T09:13:33;49.35;;;15.20;;
18820;SDS011;9539;59.332;18.034;2022-10-31T09:16:00;44.33;;;14.73;;
18820;SDS011;9539;59.332;18.034;2022-10-31T09:18:27;43.95;;;13.70;;
18820;SDS011;9539;59.332;18.034;2022-10-31T09:20:54;50.33;;;14.98;;
18820;SDS011;9539;59.332;18.034;2022-10-31T09:23:24;45.90;;;14.82;;
18820;SDS011;9539;59.332;18.034;2022-10-31T09:25:51;43.17;;;14.70;;
18820;SDS011;9539;59.332;18.034;2022-10-31T09:28:19;46.88;;;14.32;;
18820;SDS011;9539;59.332;18.034;2022-10-31T09:30:49;42.72;;;14.98;;
18820;SDS011;9539;59.332;18.034;2022-10-31T09:33:17;39.88;;;14.73;;
18820;SDS011;9539;59.332;18.034;2022-10-31T09:35:44;39.67;;;14.10;;
18820;SDS011;9539;59.332;18.034;2022-10-31T09:38:12;43.28;;;14.57;;
18820;SDS011;9539;59.332;18.034;2022-10-31T09:40:41;40.28;;;14.68;;
18820;SDS011;9539;59.332;18.034;2022-10-31T09:43:18;35.47;;;14.02;;
18820;SDS011;9539;59.332;18.034;2022-10-31T09:45:56;33.95;;;14.07;;
18820;SDS011;9539;59.332;18.034;2022-10-31T09:48:34;37.22;;;14.50;;
18820;SDS011;9539;59.332;18.034;2022-10-31T09:51:08;38.42;;;14.55;;
18820;SDS011;9539;59.332;18.034;2022-10-31T09:53:39;36.17;;;14.95;;
18820;SDS011;9539;59.332;18.034;2022-10-31T09:56:10;35.55;;;13.55;;
18820;SDS011;9539;59.332;18.034;2022-10-31T09:58:41;35.53;;;14.70;;
18820;SDS011;9539;59.332;18.034;2022-10-31T10:01:16;36.30;;;13.63;;
18820;SDS011;9539;59.332;18.034;2022-10-31T10:03:57;27.92;;;14.27;;
18820;SDS011;9539;59.332;18.034;2022-10-31T10:06:28;32.25;;;13.80;;
18820;SDS011;9539;59.332;18.034;2022-10-31T10:08:58;35.38;;;13.88;;
18820;SDS011;9539;59.332;18.034;2022-10-31T10:14:27;34.58;;;13.07;;
18820;SDS011;9539;59.332;18.034;2022-10-31T10:17:10;25.30;;;12.90;;
18820;SDS011;9539;59.332;18.034;2022-10-31T10:22:47;26.63;;;12.45;;
18820;SDS011;9539;59.332;18.034;2022-10-31T10:25:21;26.30;;;13.48;;
18820;SDS011;9539;59.332;18.034;2022-10-31T10:27:52;34.35;;;13.30;;
18820;SDS011;9539;59.332;18.034;2022-10-31T10:30:28;27.15;;;13.85;;
18820;SDS011;9539;59.332;18.034;2022-10-31T10:33:02;21.27;;;12.32;;
18820;SDS011;9539;59.332;18.034;2022-10-31T10:35:32;28.17;;;13.38;;
18820;SDS011;9539;59.332;18.034;2022-10-31T10:38:02;25.55;;;12.32;;
18820;SDS011;9539;59.332;18.034;2022-10-31T10:40:42;24.05;;;13.00;;
18820;SDS011;9539;59.332;18.034;2022-10-31T10:43:19;26.80;;;12.57;;
18820;SDS011;9539;59.332;18.034;2022-10-31T10:49:15;24.45;;;13.80;;
18820;SDS011;9539;59.332;18.034;2022-10-31T10:51:44;22.77;;;12.85;;
18820;SDS011;9539;59.332;18.034;2022-10-31T10:54:26;26.92;;;12.55;;
18820;SDS011;9539;59.332;18.034;2022-10-31T10:57:07;28.38;;;12.80;;
18820;SDS011;9539;59.332;18.034;2022-10-31T10:59:43;21.60;;;12.73;;
18820;SDS011;9539;59.332;18.034;2022-10-31T11:02:15;24.48;;;13.48;;
18820;SDS011;9539;59.332;18.034;2022-10-31T11:04:45;23.85;;;12.65;;
18820;SDS011;9539;59.332;18.034;2022-10-31T11:07:15;25.38;;;13.48;;
18820;SDS011;9539;59.332;18.034;2022-10-31T11:09:42;22.48;;;12.10;;
18820;SDS011;9539;59.332;18.034;2022-10-31T11:12:10;20.73;;;12.27;;
18820;SDS011;9539;59.332;18.034;2022-10-31T11:14:46;20.92;;;11.80;;
18820;SDS011;9539;59.332;18.034;2022-10-31T11:17:18;21.88;;;12.27;;
18820;SDS011;9539;59.332;18.034;2022-10-31T11:20:00;20.33;;;12.50;;
18820;SDS011;9539;59.332;18.034;2022-10-31T11:22:29;19.17;;;11.45;;
18820;SDS011;9539;59.332;18.034;2022-10-31T11:24:56;19.10;;;10.98;;
18820;SDS011;9539;59.332;18.034;2022-10-31T11:27:24;20.92;;;12.20;;
18820;SDS011;9539;59.332;18.034;2022-10-31T11:30:04;19.75;;;11.07;;
18820;SDS011;9539;59.332;18.034;2022-10-31T11:32:32;17.30;;;10.93;;
18820;SDS011;9539;59.332;18.034;2022-10-31T11:35:00;16.85;;;10.73;;
18820;SDS011;9539;59.332;18.034;2022-10-31T11:37:35;20.92;;;11.43;;
18820;SDS011;9539;59.332;18.034;2022-10-31T11:40:15;18.42;;;10.68;;
18820;SDS011;9539;59.332;18.034;2022-10-31T11:42:44;16.67;;;10.57;;
18820;SDS011;9539;59.332;18.034;2022-10-31T11:45:14;19.25;;;10.23;;
18820;SDS011;9539;59.332;18.034;2022-10-31T11:47:43;20.05;;;10.05;;
18820;SDS011;9539;59.332;18.034;2022-10-31T11:50:18;15.90;;;9.25;;
18820;SDS011;9539;59.332;18.034;2022-10-31T11:52:47;11.98;;;8.45;;
18820;SDS011;9539;59.332;18.034;2022-10-31T11:55:15;12.48;;;9.07;;
18820;SDS011;9539;59.332;18.034;2022-10-31T11:57:56;12.52;;;8.43;;
18820;SDS011;9539;59.332;18.034;2022-10-31T12:00:24;14.02;;;8.55;;
18820;SDS011;9539;59.332;18.034;2022-10-31T12:03:03;12.80;;;8.15;;
18820;SDS011;9539;59.332;18.034;2022-10-31T12:05:37;18.05;;;8.50;;
18820;SDS011;9539;59.332;18.034;2022-10-31T12:08:08;13.30;;;8.05;;
18820;SDS011;9539;59.332;18.034;2022-10-31T12:10:38;13.50;;;8.80;;
18820;SDS011;9539;59.332;18.034;2022-10-31T12:13:18;14.02;;;8.32;;
18820;SDS011;9539;59.332;18.034;2022-10-31T12:15:59;16.35;;;8.02;;
18820;SDS011;9539;59.332;18.034;2022-10-31T12:21:31;15.38;;;8.43;;
18820;SDS011;9539;59.332;18.034;2022-10-31T12:24:13;14.52;;;8.63;;
18820;SDS011;9539;59.332;18.034;2022-10-31T12:26:50;12.80;;;8.38;;
18820;SDS011;9539;59.332;18.034;2022-10-31T12:29:30;13.20;;;8.35;;
18820;SDS011;9539;59.332;18.034;2022-10-31T12:32:20;20.50;;;8.63;;
18820;SDS011;9539;59.332;18.034;2022-10-31T12:37:57;13.55;;;8.23;;
18820;SDS011;9539;59.332;18.034;2022-10-31T12:40:42;13.70;;;8.00;;
18820;SDS011;9539;59.332;18.034;2022-10-31T12:43:27;19.50;;;8.52;;
18820;SDS011;9539;59.332;18.034;2022-10-31T12:46:02;13.38;;;8.25;;
18820;SDS011;9539;59.332;18.034;2022-10-31T12:48:44;14.40;;;8.43;;
18820;SDS011;9539;59.332;18.034;2022-10-31T12:51:29;13.82;;;7.50;;
18820;SDS011;9539;59.332;18.034;2022-10-31T12:54:11;11.57;;;7.00;;
18820;SDS011;9539;59.332;18.034;2022-10-31T12:56:55;14.25;;;7.28;;
18820;SDS011;9539;59.332;18.034;2022-10-31T12:59:29;15.82;;;7.30;;
18820;SDS011;9539;59.332;18.034;2022-10-31T13:02:02;13.25;;;7.13;;
18820;SDS011;9539;59.332;18.034;2022-10-31T13:04:38;16.48;;;7.38;;
18820;SDS011;9539;59.332;18.034;2022-10-31T13:07:11;12.85;;;7.28;;
18820;SDS011;9539;59.332;18.034;2022-10-31T13:09:45;15.95;;;7.43;;
18820;SDS011;9539;59.332;18.034;2022-10-31T13:12:17;13.20;;;7.00;;
18820;SDS011;9539;59.332;18.034;2022-10-31T13:14:48;11.50;;;7.07;;
18820;SDS011;9539;59.332;18.034;2022-10-31T13:17:20;15.30;;;6.85;;
18820;SDS011;9539;59.332;18.034;2022-10-31T13:19:51;12.90;;;6.88;;
18820;SDS011;9539;59.332;18.034;2022-10-31T13:22:25;13.45;;;6.97;;
18820;SDS011;9539;59.332;18.034;2022-10-31T13:24:59;16.42;;;7.57;;
18820;SDS011;9539;59.332;18.034;2022-10-31T13:27:37;11.35;;;7.35;;
18820;SDS011;9539;59.332;18.034;2022-10-31T13:30:12;13.50;;;7.13;;
18820;SDS011;9539;59.332;18.034;2022-10-31T13:32:42;13.68;;;7.55;;
18820;SDS011;9539;59.332;18.034;2022-10-31T13:35:15;14.52;;;8.27;;
18820;SDS011;9539;59.332;18.034;2022-10-31T13:37:47;16.70;;;7.88;;
18820;SDS011;9539;59.332;18.034;2022-10-31T13:40:27;12.95;;;7.30;;
18820;SDS011;9539;59.332;18.034;2022-10-31T13:43:09;14.70;;;6.90;;
18820;SDS011;9539;59.332;18.034;2022-10-31T13:45:49;13.93;;;7.68;;
18820;SDS011;9539;59.332;18.034;2022-10-31T13:48:19;14.32;;;7.15;;
18820;SDS011;9539;59.332;18.034;2022-10-31T13:51:00;19.98;;;7.25;;
18820;SDS011;9539;59.332;18.034;2022-10-31T13:53:36;14.23;;;7.13;;
18820;SDS011;9539;59.332;18.034;2022-10-31T13:56:12;18.10;;;7.13;;
18820;SDS011;9539;59.332;18.034;2022-10-31T13:58:53;13.75;;;7.38;;
18820;SDS011;9539;59.332;18.034;2022-10-31T14:01:31;20.20;;;7.93;;
18820;SDS011;9539;59.332;18.034;2022-10-31T14:04:02;14.80;;;7.05;;
18820;SDS011;9539;59.332;18.034;2022-10-31T14:06:44;13.38;;;7.13;;
18820;SDS011;9539;59.332;18.034;2022-10-31T14:09:21;11.63;;;6.43;;
18820;SDS011;9539;59.332;18.034;2022-10-31T14:11:53;12.75;;;6.80;;
18820;SDS011;9539;59.332;18.034;2022-10-31T14:14:22;12.57;;;6.38;;
18820;SDS011;9539;59.332;18.034;2022-10-31T14:16:55;11.48;;;7.10;;
18820;SDS011;9539;59.332;18.034;2022-10-31T14:19:23;15.45;;;6.05;;
18820;SDS011;9539;59.332;18.034;2022-10-31T14:21:52;13.80;;;6.35;;
18820;SDS011;9539;59.332;18.034;2022-10-31T14:24:32;11.95;;;6.20;;
18820;SDS011;9539;59.332;18.034;2022-10-31T14:27:03;10.68;;;5.80;;
18820;SDS011;9539;59.332;18.034;2022-10-31T14:29:50;10.18;;;6.35;;
18820;SDS011;9539;59.332;18.034;2022-10-31T14:32:19;15.82;;;6.57;;
18820;SDS011;9539;59.332;18.034;2022-10-31T14:34:52;12.13;;;5.82;;
18820;SDS011;9539;59.332;18.034;2022-10-31T14:37:31;11.63;;;6.28;;
18820;SDS011;9539;59.332;18.034;2022-10-31T14:40:14;14.50;;;6.20;;
18820;SDS011;9539;59.332;18.034;2022-10-31T14:43:05;10.95;;;5.82;;
18820;SDS011;9539;59.332;18.034;2022-10-31T14:45:48;12.23;;;5.45;;
18820;SDS011;9539;59.332;18.034;2022-10-31T14:48:27;9.90;;;5.65;;
18820;SDS011;9539;59.332;18.034;2022-10-31T14:51:01;9.60;;;5.60;;
18820;SDS011;9539;59.332;18.034;2022-10-31T14:53:36;12.13;;;5.85;;
18820;SDS011;9539;59.332;18.034;2022-10-31T14:56:09;10.57;;;5.93;;
18820;SDS011;9539;59.332;18.034;2022-10-31T14:58:39;10.60;;;5.63;;
18820;SDS011;9539;59.332;18.034;2022-10-31T15:01:15;13.88;;;6.05;;
18820;SDS011;9539;59.332;18.034;2022-10-31T15:03:48;11.90;;;5.70;;
18820;SDS011;9539;59.332;18.034;2022-10-31T15:06:16;11.13;;;5.88;;
18820;SDS011;9539;59.332;18.034;2022-10-31T15:08:46;13.30;;;5.78;;